sensor_id;sensor_type;location;lat;lon;timestamp;pressure;altitude;pressure_sealevel;temperature
19644;BMP180;9970;-36.854;174.870;2022-08-19T00:02:08;101757.00;;;16.90
19644;BMP180;9970;-36.854;174.870;2022-08-19T00:04:41;101748.00;;;16.90
19644;BMP180;9970;-36.854;174.870;2022-08-19T00:07:13;101757.00;;;16.90
19644;BMP180;9970;-36.854;174.870;2022-08-19T00:09:47;101735.00;;;16.90
19644;BMP180;9970;-36.854;174.870;2022-08-19T00:12:22;101734.00;;;16.90
19644;BMP180;9970;-36.854;174.870;2022-08-19T00:14:55;101731.00;;;16.90
19644;BMP180;9970;-36.854;174.870;2022-08-19T00:17:28;101745.00;;;16.90
19644;BMP180;9970;-36.854;174.870;2022-08-19T00:20:01;101732.00;;;16.90
19644;BMP180;9970;-36.854;174.870;2022-08-19T00:22:34;101712.00;;;16.90
19644;BMP180;9970;-36.854;174.870;2022-08-19T00:25:08;101723.00;;;17.00
19644;BMP180;9970;-36.854;174.870;2022-08-19T00:27:42;101711.00;;;17.00
19644;BMP180;9970;-36.854;174.870;2022-08-19T00:30:17;101710.00;;;17.00
19644;BMP180;9970;-36.854;174.870;2022-08-19T00:32:50;101734.00;;;17.00
19644;BMP180;9970;-36.854;174.870;2022-08-19T00:35:24;101730.00;;;17.00
19644;BMP180;9970;-36.854;174.870;2022-08-19T00:38:00;101730.00;;;17.00
19644;BMP180;9970;-36.854;174.870;2022-08-19T00:40:33;101747.00;;;17.00
19644;BMP180;9970;-36.854;174.870;2022-08-19T00:43:10;101728.00;;;17.00
19644;BMP180;9970;-36.854;174.870;2022-08-19T00:45:44;101731.00;;;17.00
19644;BMP180;9970;-36.854;174.870;2022-08-19T00:48:18;101732.00;;;17.00
19644;BMP180;9970;-36.854;174.870;2022-08-19T00:50:52;101724.00;;;17.00
19644;BMP180;9970;-36.854;174.870;2022-08-19T00:53:57;101733.00;;;17.00
19644;BMP180;9970;-36.854;174.870;2022-08-19T00:56:31;101726.00;;;17.00
19644;BMP180;9970;-36.854;174.870;2022-08-19T00:59:05;101724.00;;;17.10
19644;BMP180;9970;-36.854;174.870;2022-08-19T01:01:41;101740.00;;;17.00
19644;BMP180;9970;-36.854;174.870;2022-08-19T01:04:14;101729.00;;;17.10
19644;BMP180;9970;-36.854;174.870;2022-08-19T01:06:47;101728.00;;;17.10
19644;BMP180;9970;-36.854;174.870;2022-08-19T01:09:20;101726.00;;;17.10
19644;BMP180;9970;-36.854;174.870;2022-08-19T01:11:54;101715.00;;;17.00
19644;BMP180;9970;-36.854;174.870;2022-08-19T01:14:27;101734.00;;;17.10
19644;BMP180;9970;-36.854;174.870;2022-08-19T01:17:00;101706.00;;;17.10
19644;BMP180;9970;-36.854;174.870;2022-08-19T01:19:41;101697.00;;;17.10
19644;BMP180;9970;-36.854;174.870;2022-08-19T01:22:31;101691.00;;;17.10
19644;BMP180;9970;-36.854;174.870;2022-08-19T01:25:05;101698.00;;;17.10
19644;BMP180;9970;-36.854;174.870;2022-08-19T01:27:41;101697.00;;;17.10
19644;BMP180;9970;-36.854;174.870;2022-08-19T01:30:24;101685.00;;;17.10
19644;BMP180;9970;-36.854;174.870;2022-08-19T01:32:52;101694.00;;;17.10
19644;BMP180;9970;-36.854;174.870;2022-08-19T01:35:26;101691.00;;;17.10
19644;BMP180;9970;-36.854;174.870;2022-08-19T01:38:04;101682.00;;;17.10
19644;BMP180;9970;-36.854;174.870;2022-08-19T01:40:42;101680.00;;;17.10
19644;BMP180;9970;-36.854;174.870;2022-08-19T01:43:16;101688.00;;;17.10
19644;BMP180;9970;-36.854;174.870;2022-08-19T01:45:52;101683.00;;;17.10
19644;BMP180;9970;-36.854;174.870;2022-08-19T01:48:25;101684.00;;;17.10
19644;BMP180;9970;-36.854;174.870;2022-08-19T01:50:59;101687.00;;;17.10
19644;BMP180;9970;-36.854;174.870;2022-08-19T01:53:32;101690.00;;;17.10
19644;BMP180;9970;-36.854;174.870;2022-08-19T01:56:09;101685.00;;;17.00
19644;BMP180;9970;-36.854;174.870;2022-08-19T01:58:49;101691.00;;;17.00
19644;BMP180;9970;-36.854;174.870;2022-08-19T02:01:20;101684.00;;;17.00
19644;BMP180;9970;-36.854;174.870;2022-08-19T02:03:54;101684.00;;;17.00
19644;BMP180;9970;-36.854;174.870;2022-08-19T02:06:28;101667.00;;;16.90
19644;BMP180;9970;-36.854;174.870;2022-08-19T02:09:00;101666.00;;;16.90
19644;BMP180;9970;-36.854;174.870;2022-08-19T02:11:35;101671.00;;;16.90
19644;BMP180;9970;-36.854;174.870;2022-08-19T02:14:10;101673.00;;;16.90
19644;BMP180;9970;-36.854;174.870;2022-08-19T02:16:43;101673.00;;;16.90
19644;BMP180;9970;-36.854;174.870;2022-08-19T02:19:15;101676.00;;;16.90
19644;BMP180;9970;-36.854;174.870;2022-08-19T02:21:49;101671.00;;;16.90
19644;BMP180;9970;-36.854;174.870;2022-08-19T02:24:22;101667.00;;;16.90
19644;BMP180;9970;-36.854;174.870;2022-08-19T02:27:00;101669.00;;;16.90
19644;BMP180;9970;-36.854;174.870;2022-08-19T02:29:33;101677.00;;;16.90
19644;BMP180;9970;-36.854;174.870;2022-08-19T02:32:07;101680.00;;;16.90
19644;BMP180;9970;-36.854;174.870;2022-08-19T02:34:40;101672.00;;;16.90
19644;BMP180;9970;-36.854;174.870;2022-08-19T02:37:13;101672.00;;;16.90
19644;BMP180;9970;-36.854;174.870;2022-08-19T02:40:04;101679.00;;;16.90
19644;BMP180;9970;-36.854;174.870;2022-08-19T02:42:39;101677.00;;;16.90
19644;BMP180;9970;-36.854;174.870;2022-08-19T02:45:12;101674.00;;;16.90
19644;BMP180;9970;-36.854;174.870;2022-08-19T02:47:45;101670.00;;;16.90
19644;BMP180;9970;-36.854;174.870;2022-08-19T02:50:18;101660.00;;;16.90
19644;BMP180;9970;-36.854;174.870;2022-08-19T02:52:51;101670.00;;;16.90
19644;BMP180;9970;-36.854;174.870;2022-08-19T02:55:24;101667.00;;;16.90
19644;BMP180;9970;-36.854;174.870;2022-08-19T02:57:57;101667.00;;;16.90
19644;BMP180;9970;-36.854;174.870;2022-08-19T03:00:32;101663.00;;;16.90
19644;BMP180;9970;-36.854;174.870;2022-08-19T03:03:06;101658.00;;;16.90
19644;BMP180;9970;-36.854;174.870;2022-08-19T03:05:39;101648.00;;;16.90
19644;BMP180;9970;-36.854;174.870;2022-08-19T03:08:13;101651.00;;;16.90
19644;BMP180;9970;-36.854;174.870;2022-08-19T03:10:48;101646.00;;;16.90
19644;BMP180;9970;-36.854;174.870;2022-08-19T03:13:22;101636.00;;;16.90
19644;BMP180;9970;-36.854;174.870;2022-08-19T03:15:56;101637.00;;;16.90
19644;BMP180;9970;-36.854;174.870;2022-08-19T03:18:29;101641.00;;;16.90
19644;BMP180;9970;-36.854;174.870;2022-08-19T03:21:03;101636.00;;;16.90
19644;BMP180;9970;-36.854;174.870;2022-08-19T03:23:38;101633.00;;;16.90
19644;BMP180;9970;-36.854;174.870;2022-08-19T03:26:15;101632.00;;;16.90
19644;BMP180;9970;-36.854;174.870;2022-08-19T03:28:48;101630.00;;;17.00
19644;BMP180;9970;-36.854;174.870;2022-08-19T03:31:28;101622.00;;;17.00
19644;BMP180;9970;-36.854;174.870;2022-08-19T03:33:58;101614.00;;;17.00
19644;BMP180;9970;-36.854;174.870;2022-08-19T03:36:32;101616.00;;;17.00
19644;BMP180;9970;-36.854;174.870;2022-08-19T03:39:05;101602.00;;;17.00
19644;BMP180;9970;-36.854;174.870;2022-08-19T03:41:39;101617.00;;;17.00
19644;BMP180;9970;-36.854;174.870;2022-08-19T03:44:15;101618.00;;;17.00
19644;BMP180;9970;-36.854;174.870;2022-08-19T03:46:52;101625.00;;;17.00
19644;BMP180;9970;-36.854;174.870;2022-08-19T03:49:26;101634.00;;;17.00
19644;BMP180;9970;-36.854;174.870;2022-08-19T03:52:02;101642.00;;;17.00
19644;BMP180;9970;-36.854;174.870;2022-08-19T03:54:37;101650.00;;;17.00
19644;BMP180;9970;-36.854;174.870;2022-08-19T03:57:10;101653.00;;;17.00
19644;BMP180;9970;-36.854;174.870;2022-08-19T03:59:47;101656.00;;;17.00
19644;BMP180;9970;-36.854;174.870;2022-08-19T04:02:19;101654.00;;;17.00
19644;BMP180;9970;-36.854;174.870;2022-08-19T04:04:53;101665.00;;;17.00
19644;BMP180;9970;-36.854;174.870;2022-08-19T04:07:26;101654.00;;;17.00
19644;BMP180;9970;-36.854;174.870;2022-08-19T04:09:59;101669.00;;;17.00
19644;BMP180;9970;-36.854;174.870;2022-08-19T04:12:32;101663.00;;;16.90
19644;BMP180;9970;-36.854;174.870;2022-08-19T04:15:06;101674.00;;;16.90
19644;BMP180;9970;-36.854;174.870;2022-08-19T04:17:39;101673.00;;;16.90
19644;BMP180;9970;-36.854;174.870;2022-08-19T04:20:12;101681.00;;;16.90
19644;BMP180;9970;-36.854;174.870;2022-08-19T04:22:54;101689.00;;;16.90
19644;BMP180;9970;-36.854;174.870;2022-08-19T04:25:44;101681.00;;;16.90
19644;BMP180;9970;-36.854;174.870;2022-08-19T04:28:21;101683.00;;;16.90
19644;BMP180;9970;-36.854;174.870;2022-08-19T04:30:55;101683.00;;;16.90
19644;BMP180;9970;-36.854;174.870;2022-08-19T04:33:28;101673.00;;;16.90
19644;BMP180;9970;-36.854;174.870;2022-08-19T04:36:00;101676.00;;;16.90
19644;BMP180;9970;-36.854;174.870;2022-08-19T04:38:33;101677.00;;;16.90
19644;BMP180;9970;-36.854;174.870;2022-08-19T04:41:06;101684.00;;;16.90
19644;BMP180;9970;-36.854;174.870;2022-08-19T04:43:59;101685.00;;;16.90
19644;BMP180;9970;-36.854;174.870;2022-08-19T04:46:33;101677.00;;;16.90
19644;BMP180;9970;-36.854;174.870;2022-08-19T04:49:07;101676.00;;;16.90
19644;BMP180;9970;-36.854;174.870;2022-08-19T04:51:46;101691.00;;;16.90
19644;BMP180;9970;-36.854;174.870;2022-08-19T04:54:19;101683.00;;;16.90
19644;BMP180;9970;-36.854;174.870;2022-08-19T04:56:54;101692.00;;;16.90
19644;BMP180;9970;-36.854;174.870;2022-08-19T04:59:27;101682.00;;;16.90
19644;BMP180;9970;-36.854;174.870;2022-08-19T05:02:00;101696.00;;;16.90
19644;BMP180;9970;-36.854;174.870;2022-08-19T05:04:37;101687.00;;;16.90
19644;BMP180;9970;-36.854;174.870;2022-08-19T05:07:10;101690.00;;;16.90
19644;BMP180;9970;-36.854;174.870;2022-08-19T05:09:43;101687.00;;;16.90
19644;BMP180;9970;-36.854;174.870;2022-08-19T05:12:17;101693.00;;;16.90
19644;BMP180;9970;-36.854;174.870;2022-08-19T05:14:51;101698.00;;;16.90
19644;BMP180;9970;-36.854;174.870;2022-08-19T05:17:25;101697.00;;;16.80
19644;BMP180;9970;-36.854;174.870;2022-08-19T05:19:59;101691.00;;;16.80
19644;BMP180;9970;-36.854;174.870;2022-08-19T05:22:55;101701.00;;;16.80
19644;BMP180;9970;-36.854;174.870;2022-08-19T05:25:28;101700.00;;;16.80
19644;BMP180;9970;-36.854;174.870;2022-08-19T05:28:01;101706.00;;;16.80
19644;BMP180;9970;-36.854;174.870;2022-08-19T05:30:34;101723.00;;;16.80
19644;BMP180;9970;-36.854;174.870;2022-08-19T05:33:08;101717.00;;;16.80
19644;BMP180;9970;-36.854;174.870;2022-08-19T05:35:42;101721.00;;;16.80
19644;BMP180;9970;-36.854;174.870;2022-08-19T05:38:15;101735.00;;;16.90
19644;BMP180;9970;-36.854;174.870;2022-08-19T05:40:48;101728.00;;;16.90
19644;BMP180;9970;-36.854;174.870;2022-08-19T05:43:21;101721.00;;;16.90
19644;BMP180;9970;-36.854;174.870;2022-08-19T05:45:54;101725.00;;;16.90
19644;BMP180;9970;-36.854;174.870;2022-08-19T05:48:27;101714.00;;;16.90
19644;BMP180;9970;-36.854;174.870;2022-08-19T05:51:04;101728.00;;;16.90
19644;BMP180;9970;-36.854;174.870;2022-08-19T05:53:37;101720.00;;;16.90
19644;BMP180;9970;-36.854;174.870;2022-08-19T05:56:13;101707.00;;;16.90
19644;BMP180;9970;-36.854;174.870;2022-08-19T05:58:46;101717.00;;;16.90
19644;BMP180;9970;-36.854;174.870;2022-08-19T06:01:19;101719.00;;;16.90
19644;BMP180;9970;-36.854;174.870;2022-08-19T06:03:52;101709.00;;;16.90
19644;BMP180;9970;-36.854;174.870;2022-08-19T06:06:26;101709.00;;;16.90
19644;BMP180;9970;-36.854;174.870;2022-08-19T06:08:59;101716.00;;;16.90
19644;BMP180;9970;-36.854;174.870;2022-08-19T06:11:37;101698.00;;;16.90
19644;BMP180;9970;-36.854;174.870;2022-08-19T06:14:12;101697.00;;;16.80
19644;BMP180;9970;-36.854;174.870;2022-08-19T06:16:46;101696.00;;;16.80
19644;BMP180;9970;-36.854;174.870;2022-08-19T06:19:20;101682.00;;;16.80
19644;BMP180;9970;-36.854;174.870;2022-08-19T06:21:59;101664.00;;;16.80
19644;BMP180;9970;-36.854;174.870;2022-08-19T06:24:32;101679.00;;;16.80
19644;BMP180;9970;-36.854;174.870;2022-08-19T06:27:06;101664.00;;;16.80
19644;BMP180;9970;-36.854;174.870;2022-08-19T06:29:39;101673.00;;;16.80
19644;BMP180;9970;-36.854;174.870;2022-08-19T06:32:14;101663.00;;;16.80
19644;BMP180;9970;-36.854;174.870;2022-08-19T06:34:47;101662.00;;;16.80
19644;BMP180;9970;-36.854;174.870;2022-08-19T06:37:20;101660.00;;;16.80
19644;BMP180;9970;-36.854;174.870;2022-08-19T06:39:53;101664.00;;;16.80
19644;BMP180;9970;-36.854;174.870;2022-08-19T06:42:26;101668.00;;;16.80
19644;BMP180;9970;-36.854;174.870;2022-08-19T06:45:00;101662.00;;;16.80
19644;BMP180;9970;-36.854;174.870;2022-08-19T06:47:37;101658.00;;;16.80
19644;BMP180;9970;-36.854;174.870;2022-08-19T06:50:11;101650.00;;;16.80
19644;BMP180;9970;-36.854;174.870;2022-08-19T06:52:44;101643.00;;;16.80
19644;BMP180;9970;-36.854;174.870;2022-08-19T06:55:19;101644.00;;;16.80
19644;BMP180;9970;-36.854;174.870;2022-08-19T06:57:52;101641.00;;;16.80
19644;BMP180;9970;-36.854;174.870;2022-08-19T07:00:25;101629.00;;;16.80
19644;BMP180;9970;-36.854;174.870;2022-08-19T07:02:59;101651.00;;;16.80
19644;BMP180;9970;-36.854;174.870;2022-08-19T07:05:37;101643.00;;;16.80
19644;BMP180;9970;-36.854;174.870;2022-08-19T07:08:09;101645.00;;;16.80
19644;BMP180;9970;-36.854;174.870;2022-08-19T07:10:45;101662.00;;;16.80
19644;BMP180;9970;-36.854;174.870;2022-08-19T07:13:18;101650.00;;;16.80
19644;BMP180;9970;-36.854;174.870;2022-08-19T07:15:53;101649.00;;;16.80
19644;BMP180;9970;-36.854;174.870;2022-08-19T07:18:26;101659.00;;;16.80
19644;BMP180;9970;-36.854;174.870;2022-08-19T07:21:12;101657.00;;;16.80
19644;BMP180;9970;-36.854;174.870;2022-08-19T07:23:45;101665.00;;;16.80
19644;BMP180;9970;-36.854;174.870;2022-08-19T07:26:25;101660.00;;;16.90
19644;BMP180;9970;-36.854;174.870;2022-08-19T07:28:56;101647.00;;;16.80
19644;BMP180;9970;-36.854;174.870;2022-08-19T07:31:31;101647.00;;;16.90
19644;BMP180;9970;-36.854;174.870;2022-08-19T07:34:07;101624.00;;;16.90
19644;BMP180;9970;-36.854;174.870;2022-08-19T07:36:42;101646.00;;;16.90
19644;BMP180;9970;-36.854;174.870;2022-08-19T07:39:22;101642.00;;;16.90
19644;BMP180;9970;-36.854;174.870;2022-08-19T07:41:49;101641.00;;;16.90
19644;BMP180;9970;-36.854;174.870;2022-08-19T07:44:22;101626.00;;;16.90
19644;BMP180;9970;-36.854;174.870;2022-08-19T07:46:56;101629.00;;;16.90
19644;BMP180;9970;-36.854;174.870;2022-08-19T07:49:29;101627.00;;;16.90
19644;BMP180;9970;-36.854;174.870;2022-08-19T07:52:08;101630.00;;;16.90
19644;BMP180;9970;-36.854;174.870;2022-08-19T07:54:38;101615.00;;;16.90
19644;BMP180;9970;-36.854;174.870;2022-08-19T07:57:12;101619.00;;;16.90
19644;BMP180;9970;-36.854;174.870;2022-08-19T07:59:46;101630.00;;;16.90
19644;BMP180;9970;-36.854;174.870;2022-08-19T08:02:18;101622.00;;;16.90
19644;BMP180;9970;-36.854;174.870;2022-08-19T08:04:51;101620.00;;;16.90
19644;BMP180;9970;-36.854;174.870;2022-08-19T08:07:41;101624.00;;;16.90
19644;BMP180;9970;-36.854;174.870;2022-08-19T08:10:32;101622.00;;;16.90
19644;BMP180;9970;-36.854;174.870;2022-08-19T08:13:10;101617.00;;;16.90
19644;BMP180;9970;-36.854;174.870;2022-08-19T08:15:44;101614.00;;;16.90
19644;BMP180;9970;-36.854;174.870;2022-08-19T08:18:18;101619.00;;;16.90
19644;BMP180;9970;-36.854;174.870;2022-08-19T08:20:52;101604.00;;;17.00
19644;BMP180;9970;-36.854;174.870;2022-08-19T08:23:26;101622.00;;;17.00
19644;BMP180;9970;-36.854;174.870;2022-08-19T08:25:59;101606.00;;;17.00
19644;BMP180;9970;-36.854;174.870;2022-08-19T08:28:33;101616.00;;;17.00
19644;BMP180;9970;-36.854;174.870;2022-08-19T08:31:06;101612.00;;;17.00
19644;BMP180;9970;-36.854;174.870;2022-08-19T08:33:40;101583.00;;;17.00
19644;BMP180;9970;-36.854;174.870;2022-08-19T08:36:17;101575.00;;;17.00
19644;BMP180;9970;-36.854;174.870;2022-08-19T08:38:50;101565.00;;;17.00
19644;BMP180;9970;-36.854;174.870;2022-08-19T08:44:11;101574.00;;;17.00
19644;BMP180;9970;-36.854;174.870;2022-08-19T08:46:51;101557.00;;;17.00
19644;BMP180;9970;-36.854;174.870;2022-08-19T08:49:45;101571.00;;;17.00
19644;BMP180;9970;-36.854;174.870;2022-08-19T08:52:27;101554.00;;;17.00
19644;BMP180;9970;-36.854;174.870;2022-08-19T08:55:14;101530.00;;;17.00
19644;BMP180;9970;-36.854;174.870;2022-08-19T09:00:31;101532.00;;;17.00
19644;BMP180;9970;-36.854;174.870;2022-08-19T09:03:09;101551.00;;;17.00
19644;BMP180;9970;-36.854;174.870;2022-08-19T09:05:48;101554.00;;;17.00
19644;BMP180;9970;-36.854;174.870;2022-08-19T09:11:09;101552.00;;;17.00
19644;BMP180;9970;-36.854;174.870;2022-08-19T09:13:59;101549.00;;;17.00
19644;BMP180;9970;-36.854;174.870;2022-08-19T09:16:28;101545.00;;;17.00
19644;BMP180;9970;-36.854;174.870;2022-08-19T09:19:04;101531.00;;;17.00
19644;BMP180;9970;-36.854;174.870;2022-08-19T09:21:37;101542.00;;;17.00
19644;BMP180;9970;-36.854;174.870;2022-08-19T09:24:10;101565.00;;;17.00
19644;BMP180;9970;-36.854;174.870;2022-08-19T09:26:44;101566.00;;;17.00
19644;BMP180;9970;-36.854;174.870;2022-08-19T09:29:18;101556.00;;;17.00
19644;BMP180;9970;-36.854;174.870;2022-08-19T09:31:52;101547.00;;;17.00
19644;BMP180;9970;-36.854;174.870;2022-08-19T09:34:24;101540.00;;;17.00
19644;BMP180;9970;-36.854;174.870;2022-08-19T09:36:57;101553.00;;;17.00
19644;BMP180;9970;-36.854;174.870;2022-08-19T09:39:31;101557.00;;;17.00
19644;BMP180;9970;-36.854;174.870;2022-08-19T09:42:04;101563.00;;;17.00
19644;BMP180;9970;-36.854;174.870;2022-08-19T09:44:40;101572.00;;;17.00
19644;BMP180;9970;-36.854;174.870;2022-08-19T09:47:14;101576.00;;;17.00
19644;BMP180;9970;-36.854;174.870;2022-08-19T09:49:48;101584.00;;;17.00
19644;BMP180;9970;-36.854;174.870;2022-08-19T09:52:21;101593.00;;;17.00
19644;BMP180;9970;-36.854;174.870;2022-08-19T09:55:01;101597.00;;;17.00
19644;BMP180;9970;-36.854;174.870;2022-08-19T09:57:36;101560.00;;;17.00
19644;BMP180;9970;-36.854;174.870;2022-08-19T10:00:10;101557.00;;;17.00
19644;BMP180;9970;-36.854;174.870;2022-08-19T10:02:45;101550.00;;;17.00
19644;BMP180;9970;-36.854;174.870;2022-08-19T10:05:20;101556.00;;;17.00
19644;BMP180;9970;-36.854;174.870;2022-08-19T10:08:11;101555.00;;;17.00
19644;BMP180;9970;-36.854;174.870;2022-08-19T10:10:43;101554.00;;;17.00
19644;BMP180;9970;-36.854;174.870;2022-08-19T10:13:20;101553.00;;;17.00
19644;BMP180;9970;-36.854;174.870;2022-08-19T10:15:56;101554.00;;;17.00
19644;BMP180;9970;-36.854;174.870;2022-08-19T10:18:30;101563.00;;;17.00
19644;BMP180;9970;-36.854;174.870;2022-08-19T10:21:09;101566.00;;;17.00
19644;BMP180;9970;-36.854;174.870;2022-08-19T10:23:45;101555.00;;;17.00
19644;BMP180;9970;-36.854;174.870;2022-08-19T10:26:21;101551.00;;;17.00
19644;BMP180;9970;-36.854;174.870;2022-08-19T10:28:55;101552.00;;;17.00
19644;BMP180;9970;-36.854;174.870;2022-08-19T10:31:29;101549.00;;;17.00
19644;BMP180;9970;-36.854;174.870;2022-08-19T10:34:03;101539.00;;;17.00
19644;BMP180;9970;-36.854;174.870;2022-08-19T10:36:37;101520.00;;;17.00
19644;BMP180;9970;-36.854;174.870;2022-08-19T10:39:12;101528.00;;;17.00
19644;BMP180;9970;-36.854;174.870;2022-08-19T10:41:45;101512.00;;;17.00
19644;BMP180;9970;-36.854;174.870;2022-08-19T10:44:18;101494.00;;;17.00
19644;BMP180;9970;-36.854;174.870;2022-08-19T10:46:52;101477.00;;;17.00
19644;BMP180;9970;-36.854;174.870;2022-08-19T10:49:29;101475.00;;;17.00
19644;BMP180;9970;-36.854;174.870;2022-08-19T10:52:03;101469.00;;;17.00
19644;BMP180;9970;-36.854;174.870;2022-08-19T10:54:55;101467.00;;;17.00
19644;BMP180;9970;-36.854;174.870;2022-08-19T10:57:45;101453.00;;;17.00
19644;BMP180;9970;-36.854;174.870;2022-08-19T11:00:20;101477.00;;;17.00
19644;BMP180;9970;-36.854;174.870;2022-08-19T11:02:55;101491.00;;;17.00
19644;BMP180;9970;-36.854;174.870;2022-08-19T11:05:28;101483.00;;;17.00
19644;BMP180;9970;-36.854;174.870;2022-08-19T11:08:06;101483.00;;;17.00
19644;BMP180;9970;-36.854;174.870;2022-08-19T11:10:45;101489.00;;;17.00
19644;BMP180;9970;-36.854;174.870;2022-08-19T11:13:18;101469.00;;;17.00
19644;BMP180;9970;-36.854;174.870;2022-08-19T11:16:06;101467.00;;;17.00
19644;BMP180;9970;-36.854;174.870;2022-08-19T11:18:40;101466.00;;;17.00
19644;BMP180;9970;-36.854;174.870;2022-08-19T11:21:16;101453.00;;;17.00
19644;BMP180;9970;-36.854;174.870;2022-08-19T11:23:51;101448.00;;;17.00
19644;BMP180;9970;-36.854;174.870;2022-08-19T11:26:25;101463.00;;;16.90
19644;BMP180;9970;-36.854;174.870;2022-08-19T11:28:58;101460.00;;;17.00
19644;BMP180;9970;-36.854;174.870;2022-08-19T11:31:35;101469.00;;;16.90
19644;BMP180;9970;-36.854;174.870;2022-08-19T11:34:12;101469.00;;;16.90
19644;BMP180;9970;-36.854;174.870;2022-08-19T11:36:45;101471.00;;;17.00
19644;BMP180;9970;-36.854;174.870;2022-08-19T11:39:21;101470.00;;;17.00
19644;BMP180;9970;-36.854;174.870;2022-08-19T11:41:53;101479.00;;;17.00
19644;BMP180;9970;-36.854;174.870;2022-08-19T11:44:26;101450.00;;;17.00
19644;BMP180;9970;-36.854;174.870;2022-08-19T11:47:01;101446.00;;;17.00
19644;BMP180;9970;-36.854;174.870;2022-08-19T11:49:36;101459.00;;;17.00
19644;BMP180;9970;-36.854;174.870;2022-08-19T11:52:08;101463.00;;;17.00
19644;BMP180;9970;-36.854;174.870;2022-08-19T11:54:41;101456.00;;;17.00
19644;BMP180;9970;-36.854;174.870;2022-08-19T11:57:14;101466.00;;;17.00
19644;BMP180;9970;-36.854;174.870;2022-08-19T11:59:51;101463.00;;;17.00
19644;BMP180;9970;-36.854;174.870;2022-08-19T12:02:24;101451.00;;;17.00
19644;BMP180;9970;-36.854;174.870;2022-08-19T12:04:57;101439.00;;;17.00
19644;BMP180;9970;-36.854;174.870;2022-08-19T12:07:32;101436.00;;;17.00
19644;BMP180;9970;-36.854;174.870;2022-08-19T12:10:05;101426.00;;;17.00
19644;BMP180;9970;-36.854;174.870;2022-08-19T12:12:39;101408.00;;;17.00
19644;BMP180;9970;-36.854;174.870;2022-08-19T12:15:15;101410.00;;;17.10
19644;BMP180;9970;-36.854;174.870;2022-08-19T12:17:48;101395.00;;;17.10
19644;BMP180;9970;-36.854;174.870;2022-08-19T12:20:21;101392.00;;;17.10
19644;BMP180;9970;-36.854;174.870;2022-08-19T12:22:55;101392.00;;;17.10
19644;BMP180;9970;-36.854;174.870;2022-08-19T12:25:28;101364.00;;;17.10
19644;BMP180;9970;-36.854;174.870;2022-08-19T12:28:02;101349.00;;;17.10
19644;BMP180;9970;-36.854;174.870;2022-08-19T12:30:37;101365.00;;;17.10
19644;BMP180;9970;-36.854;174.870;2022-08-19T12:33:09;101359.00;;;17.10
19644;BMP180;9970;-36.854;174.870;2022-08-19T12:35:46;101364.00;;;17.10
19644;BMP180;9970;-36.854;174.870;2022-08-19T12:38:19;101346.00;;;17.10
19644;BMP180;9970;-36.854;174.870;2022-08-19T12:40:53;101339.00;;;17.10
19644;BMP180;9970;-36.854;174.870;2022-08-19T12:43:27;101327.00;;;17.10
19644;BMP180;9970;-36.854;174.870;2022-08-19T12:46:01;101336.00;;;17.10
19644;BMP180;9970;-36.854;174.870;2022-08-19T12:48:36;101316.00;;;17.10
19644;BMP180;9970;-36.854;174.870;2022-08-19T12:51:17;101326.00;;;17.10
19644;BMP180;9970;-36.854;174.870;2022-08-19T12:53:45;101323.00;;;17.10
19644;BMP180;9970;-36.854;174.870;2022-08-19T12:56:19;101322.00;;;17.10
19644;BMP180;9970;-36.854;174.870;2022-08-19T12:58:51;101321.00;;;17.10
19644;BMP180;9970;-36.854;174.870;2022-08-19T13:01:25;101321.00;;;17.10
19644;BMP180;9970;-36.854;174.870;2022-08-19T13:03:59;101285.00;;;17.00
19644;BMP180;9970;-36.854;174.870;2022-08-19T13:06:32;101277.00;;;17.00
19644;BMP180;9970;-36.854;174.870;2022-08-19T13:09:05;101316.00;;;17.00
19644;BMP180;9970;-36.854;174.870;2022-08-19T13:11:38;101303.00;;;17.00
19644;BMP180;9970;-36.854;174.870;2022-08-19T13:14:11;101307.00;;;17.00
19644;BMP180;9970;-36.854;174.870;2022-08-19T13:16:44;101316.00;;;17.00
19644;BMP180;9970;-36.854;174.870;2022-08-19T13:19:17;101315.00;;;17.00
19644;BMP180;9970;-36.854;174.870;2022-08-19T13:21:52;101310.00;;;17.00
19644;BMP180;9970;-36.854;174.870;2022-08-19T13:24:27;101314.00;;;17.00
19644;BMP180;9970;-36.854;174.870;2022-08-19T13:27:03;101325.00;;;17.00
19644;BMP180;9970;-36.854;174.870;2022-08-19T13:29:39;101307.00;;;17.00
19644;BMP180;9970;-36.854;174.870;2022-08-19T13:32:34;101295.00;;;17.00
19644;BMP180;9970;-36.854;174.870;2022-08-19T13:35:24;101293.00;;;17.00
19644;BMP180;9970;-36.854;174.870;2022-08-19T13:37:57;101290.00;;;17.00
19644;BMP180;9970;-36.854;174.870;2022-08-19T13:40:32;101294.00;;;17.00
19644;BMP180;9970;-36.854;174.870;2022-08-19T13:43:12;101297.00;;;17.00
19644;BMP180;9970;-36.854;174.870;2022-08-19T13:45:46;101292.00;;;17.00
19644;BMP180;9970;-36.854;174.870;2022-08-19T13:48:19;101288.00;;;17.00
19644;BMP180;9970;-36.854;174.870;2022-08-19T13:50:52;101280.00;;;17.10
19644;BMP180;9970;-36.854;174.870;2022-08-19T13:53:29;101304.00;;;17.00
19644;BMP180;9970;-36.854;174.870;2022-08-19T13:56:10;101308.00;;;17.10
19644;BMP180;9970;-36.854;174.870;2022-08-19T13:58:37;101283.00;;;17.10
19644;BMP180;9970;-36.854;174.870;2022-08-19T14:01:11;101315.00;;;17.10
19644;BMP180;9970;-36.854;174.870;2022-08-19T14:03:44;101292.00;;;17.10
19644;BMP180;9970;-36.854;174.870;2022-08-19T14:06:16;101303.00;;;17.10
19644;BMP180;9970;-36.854;174.870;2022-08-19T14:08:49;101297.00;;;17.10
19644;BMP180;9970;-36.854;174.870;2022-08-19T14:11:26;101336.00;;;17.10
19644;BMP180;9970;-36.854;174.870;2022-08-19T14:13:58;101302.00;;;17.10
19644;BMP180;9970;-36.854;174.870;2022-08-19T14:16:31;101292.00;;;17.10
19644;BMP180;9970;-36.854;174.870;2022-08-19T14:19:03;101295.00;;;17.10
19644;BMP180;9970;-36.854;174.870;2022-08-19T14:21:41;101307.00;;;17.10
19644;BMP180;9970;-36.854;174.870;2022-08-19T14:24:13;101296.00;;;17.10